METAR Data
IDs: Format: Raw Decoded Include TAF

Data at: 1248 UTC 09 Dec 2019

KM04 091235Z AUTO 20020G26KT 9SM OVC018 16/13 A2975 RMK A01
KM04 091215Z AUTO 20018G27KT 9SM OVC020 16/13 A2975 RMK A01
KM04 091155Z AUTO 21021G27KT 10SM OVC021 16/13 A2975 RMK A01
KM04 091135Z AUTO 21020G25KT 9SM OVC022 16/13 A2975 RMK A01
KM04 091115Z AUTO 20015G23KT 10SM OVC022 16/12 A2976 RMK A01
KM04 091055Z AUTO 20015KT 10SM OVC023 16/12 A2977 RMK A01
KM04 091035Z AUTO 19011G17KT 10SM OVC023 16/12 A2977 RMK A01
KM04 091015Z AUTO 19011G16KT 10SM OVC024 16/12 A2978 RMK A01
KM04 090955Z AUTO 19010G18KT 10SM BKN025 OVC038 16/11 A2979 RMK A01
KM04 090935Z AUTO 19011KT 10SM FEW026 BKN038 OVC049 15/12 A2980 RMK A01
KM04 090915Z AUTO 19013KT 10SM BKN037 OVC050 15/12 A2981 RMK A01
KM04 090855Z AUTO 19010G16KT 10SM OVC037 15/12 A2982 RMK A01
KM04 090835Z AUTO 20011KT 10SM OVC038 15/13 A2983 RMK A01
KM04 090815Z AUTO 19012KT 10SM OVC042 15/13 A2984 RMK A01
KM04 090755Z AUTO 20011G16KT 10SM OVC045 15/13 A2984 RMK A01
KM04 090735Z AUTO 20010KT 10SM OVC048 15/13 A2985 RMK A01
KM04 090715Z AUTO 19010KT 10SM FEW015 BKN050 OVC065 15/13 A2985 RMK A01
KM04 090655Z AUTO 21009KT 10SM SCT015 OVC065 15/13 A2986 RMK A01
KM04 090635Z AUTO 20009KT 10SM BKN016 OVC065 15/13 A2986 RMK A01
KM04 090615Z AUTO 20010G16KT 10SM OVC014 15/13 A2987 RMK A01
KM04 090555Z AUTO 19009KT 10SM OVC012 15/13 A2987 RMK A01
KM04 090535Z AUTO 20009KT 10SM OVC013 15/13 A2988 RMK A01
KM04 090515Z AUTO 19010G15KT 10SM OVC014 14/13 A2987 RMK A01
KM04 090455Z AUTO 18009KT 10SM OVC014 14/12 A2989 RMK A01
KM04 090435Z AUTO 18007KT 10SM OVC015 14/12 A2990 RMK A01
KM04 090415Z AUTO 19006G11KT 10SM OVC016 14/12 A2990 RMK A01
KM04 090355Z AUTO 6.41666706KT 10SM BKN017 BKN022 BKN027 14/12 A2990 RMK A01
KM04 090335Z AUTO 19008KT 10SM BKN017 OVC029 14/12 A2991 RMK A01
KM04 090315Z AUTO 19008KT 10SM BKN018 14/12 A2990 RMK A01
KM04 090255Z AUTO 19007KT 10SM BKN018 14/12 A2991 RMK A01
KM04 090235Z AUTO 18006KT 10SM OVC019 14/12 A2992 RMK A01
KM04 090215Z AUTO 21009KT 10SM OVC019 14/12 A2993 RMK A01
KM04 090155Z AUTO 21006KT 10SM OVC020 14/11 A2993 RMK A01
KM04 090135Z AUTO 19004KT 10SM BKN023 OVC028 14/11 A2992 RMK A01
KM04 090115Z AUTO 16004KT 10SM OVC024 14/11 A2991 RMK A01
KM04 090055Z AUTO 18006KT 10SM OVC025 14/11 A2992 RMK A01
KM04 090035Z AUTO 17005G11KT 10SM BKN027 BKN031 14/11 A2992 RMK A01
KM04 090015Z AUTO 18006KT 10SM OVC029 15/11 A2993 RMK A01
KM04 082355Z AUTO 19005KT 10SM BKN029 OVC033 15/11 A2995 RMK A01
KM04 082335Z AUTO 20007KT 10SM OVC032 15/10 A2996 RMK A01
KM04 082315Z AUTO 18009KT 10SM OVC036 15/10 A2996 RMK A01
KM04 082255Z AUTO 18006KT 10SM BKN038 15/10 A2997 RMK A01
KM04 082235Z AUTO 18006KT 10SM OVC038 15/10 A2997 RMK A01
KM04 082215Z AUTO 16006KT 10SM BKN034 OVC040 15/10 A2997 RMK A01
KM04 082155Z AUTO 18004KT 10SM OVC033 15/10 A2998 RMK A01
KM04 082135Z AUTO 18006KT 10SM OVC033 15/09 A2997 RMK A01
KM04 082115Z AUTO 20011KT 10SM SCT035 15/09 A2998 RMK A01
KM04 082055Z AUTO 19006KT 10SM BKN036 16/09 A2997 RMK A01
KM04 082035Z AUTO 19011KT 10SM BKN037 16/09 A2999 RMK A01
KM04 082015Z AUTO 20012KT 10SM SCT038 16/09 A3000 RMK A01
KM04 081955Z AUTO 21013KT 10SM FEW038 16/09 A3001 RMK A01
KM04 081935Z AUTO 19013G19KT 10SM CLR 15/09 A3001 RMK A01
KM04 081915Z AUTO 22015G20KT 3SM HZ CLR 15/09 A3003 RMK A01
KM04 081855Z AUTO 20009KT 4SM HZ CLR 15/10 A3003 RMK A01
KM04 081835Z AUTO 21010KT 1 1/2SM HZ CLR 14/10 A3004 RMK A01
KM04 081815Z AUTO 22007KT 3/4SM HZ BKN040 13/09 A3006 RMK A01
KM04 081755Z AUTO 18005KT 7SM FEW041 13/09 A3006 RMK A01
KM04 081735Z AUTO 19007KT 2 1/2SM HZ FEW044 12/08 A3008 RMK A01
KM04 081715Z AUTO 22005KT 2 1/2SM HZ CLR 11/08 A3010 RMK A01
KM04 081655Z AUTO VRB06KT 3SM BR SCT045 10/07 A3011 RMK A01
KM04 081635Z AUTO 18008KT 5SM BR BKN044 08/07 A3012 RMK A01
KM04 081615Z AUTO 19007KT 1 1/2SM BR OVC044 08/06 A3013 RMK A01 VIS 1/2V3
KM04 081555Z AUTO 20005KT 3/4SM BR OVC044 07/06 A3014 RMK A01
KM04 081535Z AUTO 21004KT 1/2SM BR SCT005 OVC043 06/05 A3015 RMK A01
KM04 081515Z AUTO 00000KT 1 1/4SM BR CLR 04/04 A3015 RMK A01
KM04 081455Z AUTO 19003KT 1 1/4SM BR SCT043 03/03 A3015 RMK A01
KM04 081435Z AUTO 00000KT 3/4SM BR OVC043 03/03 A3016 RMK A01
KM04 081415Z AUTO 00000KT 1/2SM BR BKN003 OVC042 02/02 A3016 RMK A01
KM04 081355Z AUTO 19003KT 1 1/4SM BR SCT003 OVC041 02/02 A3016 RMK A01 VIS 3/4V3
KM04 081335Z AUTO 21003KT 3SM BR FEW002 OVC039 01/01 A3017 RMK A01
KM04 081315Z AUTO 00000KT 1/4SM FG OVC002 01/01 A3017 RMK A01
KM04 081255Z AUTO 00000KT M1/4SM FG OVC002 00/00 A3016 RMK A01
KM04 081235Z AUTO 00000KT M1/4SM FG OVC002 00/00 A3016 RMK A01
KM04 081215Z AUTO 00000KT 1/4SM FZFG OVC002 M00/M00 A3016 RMK A01
KM04 081155Z AUTO 00000KT 1/4SM FG OVC002 00/00 A3017 RMK A01
KM04 081135Z AUTO 00000KT M1/4SM FG OVC002 00/00 A3016 RMK A01
KM04 081115Z AUTO 00000KT 1/4SM FG OVC002 00/00 A3016 RMK A01
KM04 081055Z AUTO 00000KT M1/4SM FG OVC003 00/00 A3017 RMK A01
KM04 081035Z AUTO 32003KT M1/4SM FG OVC004 00/00 A3016 RMK A01 VIS M1/4V5
KM04 081015Z AUTO 00000KT M1/4SM FG OVC002 01/00 A3017 RMK A01
KM04 080955Z AUTO 00000KT M1/4SM FG OVC001 01/01 A3017 RMK A01
KM04 080935Z AUTO 00000KT 1/4SM FG BKN002 01/01 A3017 RMK A01
KM04 080915Z AUTO 00000KT 1/2SM FG VV005 01/01 A3017 RMK A01
KM04 080855Z AUTO 00000KT 1/4SM FG VV002 01/01 A3017 RMK A01
KM04 080835Z AUTO 00000KT 1/4SM FG VV002 01/01 A3017 RMK A01
KM04 080815Z AUTO 00000KT 1/4SM FG VV002 02/02 A3017 RMK A01
KM04 080755Z AUTO 00000KT 1/2SM FG VV005 02/02 A3017 RMK A01
KM04 080735Z AUTO 00000KT 1/2SM FG VV005 02/02 A3017 RMK A01
KM04 080715Z AUTO 00000KT 1 1/2SM BR CLR 02/02 A3018 RMK A01
KM04 080655Z AUTO 00000KT 1SM BR CLR 02/02 A3018 RMK A01
KM04 080635Z AUTO 00000KT 1 1/2SM BR CLR 02/02 A3019 RMK A01
KM04 080615Z AUTO 00000KT 1/4SM FG VV002 02/02 A3020 RMK A01
KM04 080555Z AUTO 00000KT 1/2SM FG VV005 02/02 A3021 RMK A01
KM04 080535Z AUTO 00000KT 1/2SM FG VV005 02/02 A3022 RMK A01
KM04 080515Z AUTO 33004KT 1/2SM FG VV005 02/02 A3023 RMK A01
KM04 080455Z AUTO 00000KT 1 1/4SM BR CLR 03/03 A3022 RMK A01
KM04 080435Z AUTO 00000KT 1/2SM BR VV005 03/03 A3023 RMK A01
KM04 080415Z AUTO 00000KT 1/2SM BR VV005 03/03 A3023 RMK A01
KM04 080355Z AUTO 00000KT 1/2SM BR VV005 04/03 A3023 RMK A01
KM04 080335Z AUTO 00000KT 1/2SM FG VV005 03/03 A3024 RMK A01
KM04 080315Z AUTO 00000KT 1/4SM FG VV002 04/02 A3024 RMK A01
KM04 080255Z AUTO 00000KT 3/4SM BR VV005 05/04 A3024 RMK A01
KM04 080235Z AUTO 00000KT 1/4SM FG VV002 04/03 A3025 RMK A01
KM04 080215Z AUTO 00000KT 3/4SM BR VV005 05/04 A3025 RMK A01
KM04 080155Z AUTO 00000KT 1/2SM BR VV005 05/04 A3025 RMK A01
KM04 080135Z AUTO 32003KT 1SM BR CLR 06/04 A3025 RMK A01
KM04 080115Z AUTO 00000KT 1 1/4SM BR CLR 06/04 A3025 RMK A01
KM04 080055Z AUTO 00000KT 3/4SM BR VV005 06/04 A3025 RMK A01